sensor_id;sensor_type;location;lat;lon;timestamp;temperature;humidity
21039;DHT22;10678;51.002;4.786;2022-12-11T00:02:02;3.50;99.90
21039;DHT22;10678;51.002;4.786;2022-12-11T00:04:29;3.50;99.90
21039;DHT22;10678;51.002;4.786;2022-12-11T00:06:54;3.60;99.90
21039;DHT22;10678;51.002;4.786;2022-12-11T00:09:20;3.70;99.90
21039;DHT22;10678;51.002;4.786;2022-12-11T00:11:46;3.70;99.90
21039;DHT22;10678;51.002;4.786;2022-12-11T00:14:13;3.80;99.90
21039;DHT22;10678;51.002;4.786;2022-12-11T00:16:39;3.80;99.90
21039;DHT22;10678;51.002;4.786;2022-12-11T00:19:05;3.80;99.90
21039;DHT22;10678;51.002;4.786;2022-12-11T00:21:31;3.80;99.90
21039;DHT22;10678;51.002;4.786;2022-12-11T00:23:56;3.90;99.90
21039;DHT22;10678;51.002;4.786;2022-12-11T00:26:22;3.90;99.90
21039;DHT22;10678;51.002;4.786;2022-12-11T00:28:52;3.70;99.90
21039;DHT22;10678;51.002;4.786;2022-12-11T00:31:19;3.80;99.90
21039;DHT22;10678;51.002;4.786;2022-12-11T00:33:46;3.70;99.90
21039;DHT22;10678;51.002;4.786;2022-12-11T00:36:19;3.80;99.90
21039;DHT22;10678;51.002;4.786;2022-12-11T00:38:45;3.80;99.90
21039;DHT22;10678;51.002;4.786;2022-12-11T00:41:11;3.70;99.90
21039;DHT22;10678;51.002;4.786;2022-12-11T00:43:37;3.70;99.90
21039;DHT22;10678;51.002;4.786;2022-12-11T00:46:03;3.80;99.90
21039;DHT22;10678;51.002;4.786;2022-12-11T00:48:28;3.80;99.90
21039;DHT22;10678;51.002;4.786;2022-12-11T00:50:54;3.80;99.90
21039;DHT22;10678;51.002;4.786;2022-12-11T00:53:20;3.80;99.90
21039;DHT22;10678;51.002;4.786;2022-12-11T00:55:45;3.80;99.90
21039;DHT22;10678;51.002;4.786;2022-12-11T00:58:11;3.70;99.90
21039;DHT22;10678;51.002;4.786;2022-12-11T01:00:38;3.70;99.90
21039;DHT22;10678;51.002;4.786;2022-12-11T01:03:04;3.80;99.90
21039;DHT22;10678;51.002;4.786;2022-12-11T01:05:30;3.70;99.90
21039;DHT22;10678;51.002;4.786;2022-12-11T01:07:55;3.70;99.90
21039;DHT22;10678;51.002;4.786;2022-12-11T01:10:21;3.80;99.90
21039;DHT22;10678;51.002;4.786;2022-12-11T01:15:17;3.60;99.90
21039;DHT22;10678;51.002;4.786;2022-12-11T01:17:43;3.60;99.90
21039;DHT22;10678;51.002;4.786;2022-12-11T01:20:09;3.60;99.90
21039;DHT22;10678;51.002;4.786;2022-12-11T01:22:35;3.50;99.90
21039;DHT22;10678;51.002;4.786;2022-12-11T01:25:00;3.60;99.90
21039;DHT22;10678;51.002;4.786;2022-12-11T01:27:26;3.60;99.90
21039;DHT22;10678;51.002;4.786;2022-12-11T01:29:51;3.60;99.90
21039;DHT22;10678;51.002;4.786;2022-12-11T01:32:17;3.60;99.90
21039;DHT22;10678;51.002;4.786;2022-12-11T01:34:42;3.50;99.90
21039;DHT22;10678;51.002;4.786;2022-12-11T01:37:08;3.60;99.90
21039;DHT22;10678;51.002;4.786;2022-12-11T01:39:35;3.60;99.90
21039;DHT22;10678;51.002;4.786;2022-12-11T01:42:03;3.50;99.90
21039;DHT22;10678;51.002;4.786;2022-12-11T01:46:54;3.60;99.90
21039;DHT22;10678;51.002;4.786;2022-12-11T01:49:22;3.70;99.90
21039;DHT22;10678;51.002;4.786;2022-12-11T01:51:56;3.60;99.90
21039;DHT22;10678;51.002;4.786;2022-12-11T01:54:24;3.70;99.90
21039;DHT22;10678;51.002;4.786;2022-12-11T01:56:52;3.60;99.90
21039;DHT22;10678;51.002;4.786;2022-12-11T01:59:22;3.50;99.90
21039;DHT22;10678;51.002;4.786;2022-12-11T02:02:19;3.60;99.90
21039;DHT22;10678;51.002;4.786;2022-12-11T02:04:46;3.50;99.90
21039;DHT22;10678;51.002;4.786;2022-12-11T02:07:13;3.50;99.90
21039;DHT22;10678;51.002;4.786;2022-12-11T02:09:40;3.70;99.90
21039;DHT22;10678;51.002;4.786;2022-12-11T02:14:58;3.60;99.90
21039;DHT22;10678;51.002;4.786;2022-12-11T02:20:30;3.90;99.90
21039;DHT22;10678;51.002;4.786;2022-12-11T02:28:30;3.80;99.90
21039;DHT22;10678;51.002;4.786;2022-12-11T02:31:11;3.80;99.90
21039;DHT22;10678;51.002;4.786;2022-12-11T02:33:46;3.80;99.90
21039;DHT22;10678;51.002;4.786;2022-12-11T02:36:15;3.70;99.90
21039;DHT22;10678;51.002;4.786;2022-12-11T02:38:43;3.70;99.90
21039;DHT22;10678;51.002;4.786;2022-12-11T02:41:15;3.80;99.90
21039;DHT22;10678;51.002;4.786;2022-12-11T02:43:42;3.80;99.90
21039;DHT22;10678;51.002;4.786;2022-12-11T02:46:09;3.90;99.90
21039;DHT22;10678;51.002;4.786;2022-12-11T02:48:35;3.90;99.90
21039;DHT22;10678;51.002;4.786;2022-12-11T02:51:02;3.90;99.90
21039;DHT22;10678;51.002;4.786;2022-12-11T02:53:30;3.80;99.90
21039;DHT22;10678;51.002;4.786;2022-12-11T02:56:08;3.90;99.90
21039;DHT22;10678;51.002;4.786;2022-12-11T02:58:38;3.70;99.90
21039;DHT22;10678;51.002;4.786;2022-12-11T03:01:07;3.70;99.90
21039;DHT22;10678;51.002;4.786;2022-12-11T03:03:32;3.80;99.90
21039;DHT22;10678;51.002;4.786;2022-12-11T03:05:58;3.80;99.90
21039;DHT22;10678;51.002;4.786;2022-12-11T03:08:24;3.80;99.90
21039;DHT22;10678;51.002;4.786;2022-12-11T03:10:50;3.80;99.90
21039;DHT22;10678;51.002;4.786;2022-12-11T03:13:19;3.90;99.90
21039;DHT22;10678;51.002;4.786;2022-12-11T03:18:33;3.90;99.90
21039;DHT22;10678;51.002;4.786;2022-12-11T03:21:13;4.00;99.90
21039;DHT22;10678;51.002;4.786;2022-12-11T03:23:48;4.10;99.90
21039;DHT22;10678;51.002;4.786;2022-12-11T03:26:16;4.10;99.90
21039;DHT22;10678;51.002;4.786;2022-12-11T03:34:12;3.90;99.90
21039;DHT22;10678;51.002;4.786;2022-12-11T03:36:41;4.00;99.90
21039;DHT22;10678;51.002;4.786;2022-12-11T03:39:29;4.00;99.90
21039;DHT22;10678;51.002;4.786;2022-12-11T03:41:57;4.00;99.90
21039;DHT22;10678;51.002;4.786;2022-12-11T03:44:25;3.90;99.90
21039;DHT22;10678;51.002;4.786;2022-12-11T03:46:52;4.00;99.90
21039;DHT22;10678;51.002;4.786;2022-12-11T03:49:23;3.90;99.90
21039;DHT22;10678;51.002;4.786;2022-12-11T03:51:53;4.00;99.90
21039;DHT22;10678;51.002;4.786;2022-12-11T03:54:19;4.00;99.90
21039;DHT22;10678;51.002;4.786;2022-12-11T03:56:45;4.00;99.90
21039;DHT22;10678;51.002;4.786;2022-12-11T03:59:12;4.00;99.90
21039;DHT22;10678;51.002;4.786;2022-12-11T04:01:38;4.00;99.90
21039;DHT22;10678;51.002;4.786;2022-12-11T04:04:03;3.90;99.90
21039;DHT22;10678;51.002;4.786;2022-12-11T04:06:29;3.90;99.90
21039;DHT22;10678;51.002;4.786;2022-12-11T04:08:54;3.90;99.90
21039;DHT22;10678;51.002;4.786;2022-12-11T04:11:20;4.10;99.90
21039;DHT22;10678;51.002;4.786;2022-12-11T04:14:06;4.20;99.90
21039;DHT22;10678;51.002;4.786;2022-12-11T04:16:51;4.10;99.90
21039;DHT22;10678;51.002;4.786;2022-12-11T04:19:17;4.10;99.90
21039;DHT22;10678;51.002;4.786;2022-12-11T04:22:01;4.00;99.90
21039;DHT22;10678;51.002;4.786;2022-12-11T04:24:49;4.00;99.90
21039;DHT22;10678;51.002;4.786;2022-12-11T04:27:16;3.90;99.90
21039;DHT22;10678;51.002;4.786;2022-12-11T04:30:02;3.80;99.90
21039;DHT22;10678;51.002;4.786;2022-12-11T04:32:28;3.80;99.90
21039;DHT22;10678;51.002;4.786;2022-12-11T04:34:53;3.80;99.90
21039;DHT22;10678;51.002;4.786;2022-12-11T04:37:19;3.80;99.90
21039;DHT22;10678;51.002;4.786;2022-12-11T04:39:44;3.80;99.90
21039;DHT22;10678;51.002;4.786;2022-12-11T04:42:10;4.00;99.90
21039;DHT22;10678;51.002;4.786;2022-12-11T04:44:35;4.00;99.90
21039;DHT22;10678;51.002;4.786;2022-12-11T04:47:01;3.90;99.90
21039;DHT22;10678;51.002;4.786;2022-12-11T04:49:26;3.80;99.90
21039;DHT22;10678;51.002;4.786;2022-12-11T04:51:52;3.90;99.90
21039;DHT22;10678;51.002;4.786;2022-12-11T04:54:17;3.90;99.90
21039;DHT22;10678;51.002;4.786;2022-12-11T04:56:43;3.90;99.90
21039;DHT22;10678;51.002;4.786;2022-12-11T04:59:09;3.90;99.90
21039;DHT22;10678;51.002;4.786;2022-12-11T05:01:34;3.80;99.90
21039;DHT22;10678;51.002;4.786;2022-12-11T05:04:00;3.90;99.90
21039;DHT22;10678;51.002;4.786;2022-12-11T05:06:25;3.90;99.90
21039;DHT22;10678;51.002;4.786;2022-12-11T05:08:51;4.00;99.90
21039;DHT22;10678;51.002;4.786;2022-12-11T05:11:17;3.90;99.90
21039;DHT22;10678;51.002;4.786;2022-12-11T05:13:44;3.90;99.90
21039;DHT22;10678;51.002;4.786;2022-12-11T05:16:12;3.90;99.90
21039;DHT22;10678;51.002;4.786;2022-12-11T05:18:38;3.90;99.90
21039;DHT22;10678;51.002;4.786;2022-12-11T05:21:06;3.80;99.90
21039;DHT22;10678;51.002;4.786;2022-12-11T05:23:33;3.90;99.90
21039;DHT22;10678;51.002;4.786;2022-12-11T05:26:01;3.80;99.90
21039;DHT22;10678;51.002;4.786;2022-12-11T05:28:28;3.80;99.90
21039;DHT22;10678;51.002;4.786;2022-12-11T05:31:00;3.90;99.90
21039;DHT22;10678;51.002;4.786;2022-12-11T05:33:26;3.90;99.90
21039;DHT22;10678;51.002;4.786;2022-12-11T05:35:51;4.00;99.90
21039;DHT22;10678;51.002;4.786;2022-12-11T05:38:17;4.00;99.90
21039;DHT22;10678;51.002;4.786;2022-12-11T05:40:43;4.10;99.90
21039;DHT22;10678;51.002;4.786;2022-12-11T05:43:09;4.10;99.90
21039;DHT22;10678;51.002;4.786;2022-12-11T05:45:35;4.10;99.90
21039;DHT22;10678;51.002;4.786;2022-12-11T05:48:00;3.90;99.90
21039;DHT22;10678;51.002;4.786;2022-12-11T05:50:26;3.80;99.90
21039;DHT22;10678;51.002;4.786;2022-12-11T05:52:51;3.80;99.90
21039;DHT22;10678;51.002;4.786;2022-12-11T05:55:17;3.80;99.90
21039;DHT22;10678;51.002;4.786;2022-12-11T05:57:42;3.80;99.90
21039;DHT22;10678;51.002;4.786;2022-12-11T06:00:10;3.80;99.90
21039;DHT22;10678;51.002;4.786;2022-12-11T06:02:36;3.90;99.90
21039;DHT22;10678;51.002;4.786;2022-12-11T06:05:02;3.90;99.90
21039;DHT22;10678;51.002;4.786;2022-12-11T06:07:27;3.80;99.90
21039;DHT22;10678;51.002;4.786;2022-12-11T06:09:53;3.90;99.90
21039;DHT22;10678;51.002;4.786;2022-12-11T06:12:18;4.00;99.90
21039;DHT22;10678;51.002;4.786;2022-12-11T06:14:44;3.90;99.90
21039;DHT22;10678;51.002;4.786;2022-12-11T06:17:10;3.80;99.90
21039;DHT22;10678;51.002;4.786;2022-12-11T06:19:35;3.90;99.90
21039;DHT22;10678;51.002;4.786;2022-12-11T06:22:01;3.80;99.90
21039;DHT22;10678;51.002;4.786;2022-12-11T06:24:27;3.70;99.90
21039;DHT22;10678;51.002;4.786;2022-12-11T06:26:52;3.80;99.90
21039;DHT22;10678;51.002;4.786;2022-12-11T06:29:18;3.90;99.90
21039;DHT22;10678;51.002;4.786;2022-12-11T06:31:43;3.80;99.90
21039;DHT22;10678;51.002;4.786;2022-12-11T06:34:11;3.50;99.90
21039;DHT22;10678;51.002;4.786;2022-12-11T06:36:37;3.50;99.90
21039;DHT22;10678;51.002;4.786;2022-12-11T06:39:02;3.60;99.90
21039;DHT22;10678;51.002;4.786;2022-12-11T06:41:28;3.50;99.90
21039;DHT22;10678;51.002;4.786;2022-12-11T06:43:54;3.60;99.90
21039;DHT22;10678;51.002;4.786;2022-12-11T06:46:19;3.70;99.90
21039;DHT22;10678;51.002;4.786;2022-12-11T06:48:46;3.70;99.90
21039;DHT22;10678;51.002;4.786;2022-12-11T06:51:14;3.70;99.90
21039;DHT22;10678;51.002;4.786;2022-12-11T06:53:40;3.60;99.90
21039;DHT22;10678;51.002;4.786;2022-12-11T06:56:09;3.60;99.90
21039;DHT22;10678;51.002;4.786;2022-12-11T06:58:35;3.50;99.90
21039;DHT22;10678;51.002;4.786;2022-12-11T07:01:01;3.60;99.90
21039;DHT22;10678;51.002;4.786;2022-12-11T07:03:27;3.60;99.90
21039;DHT22;10678;51.002;4.786;2022-12-11T07:05:53;3.50;99.90
21039;DHT22;10678;51.002;4.786;2022-12-11T07:08:18;3.50;99.90
21039;DHT22;10678;51.002;4.786;2022-12-11T07:10:44;3.60;99.90
21039;DHT22;10678;51.002;4.786;2022-12-11T07:13:09;3.50;99.90
21039;DHT22;10678;51.002;4.786;2022-12-11T07:15:35;3.40;99.90
21039;DHT22;10678;51.002;4.786;2022-12-11T07:18:01;3.50;99.90
21039;DHT22;10678;51.002;4.786;2022-12-11T07:20:26;3.50;99.90
21039;DHT22;10678;51.002;4.786;2022-12-11T07:22:53;3.60;99.90
21039;DHT22;10678;51.002;4.786;2022-12-11T07:25:19;3.40;99.90
21039;DHT22;10678;51.002;4.786;2022-12-11T07:27:44;3.50;99.90
21039;DHT22;10678;51.002;4.786;2022-12-11T07:30:11;3.60;99.90
21039;DHT22;10678;51.002;4.786;2022-12-11T07:32:37;3.60;99.90
21039;DHT22;10678;51.002;4.786;2022-12-11T07:35:03;3.60;99.90
21039;DHT22;10678;51.002;4.786;2022-12-11T07:37:29;3.70;99.90
21039;DHT22;10678;51.002;4.786;2022-12-11T07:39:54;3.70;99.90
21039;DHT22;10678;51.002;4.786;2022-12-11T07:42:20;3.70;99.90
21039;DHT22;10678;51.002;4.786;2022-12-11T07:44:45;3.70;99.90
21039;DHT22;10678;51.002;4.786;2022-12-11T07:47:11;3.60;99.90
21039;DHT22;10678;51.002;4.786;2022-12-11T07:49:36;3.60;99.90
21039;DHT22;10678;51.002;4.786;2022-12-11T07:52:03;3.60;99.90
21039;DHT22;10678;51.002;4.786;2022-12-11T07:54:28;3.40;99.90
21039;DHT22;10678;51.002;4.786;2022-12-11T07:56:54;3.40;99.90
21039;DHT22;10678;51.002;4.786;2022-12-11T07:59:19;3.40;99.90
21039;DHT22;10678;51.002;4.786;2022-12-11T08:01:45;3.50;99.90
21039;DHT22;10678;51.002;4.786;2022-12-11T08:04:11;3.40;99.90
21039;DHT22;10678;51.002;4.786;2022-12-11T08:06:40;3.50;99.90
21039;DHT22;10678;51.002;4.786;2022-12-11T08:09:08;3.50;99.90
21039;DHT22;10678;51.002;4.786;2022-12-11T08:11:34;3.50;99.90
21039;DHT22;10678;51.002;4.786;2022-12-11T08:14:00;3.70;99.90
21039;DHT22;10678;51.002;4.786;2022-12-11T08:16:26;3.60;99.90
21039;DHT22;10678;51.002;4.786;2022-12-11T08:18:52;3.70;99.90
21039;DHT22;10678;51.002;4.786;2022-12-11T08:21:20;3.70;99.90
21039;DHT22;10678;51.002;4.786;2022-12-11T08:23:47;3.80;99.90
21039;DHT22;10678;51.002;4.786;2022-12-11T08:26:14;3.90;99.90
21039;DHT22;10678;51.002;4.786;2022-12-11T08:28:40;3.70;99.90
21039;DHT22;10678;51.002;4.786;2022-12-11T08:31:08;3.60;99.90
21039;DHT22;10678;51.002;4.786;2022-12-11T08:33:35;3.60;99.90
21039;DHT22;10678;51.002;4.786;2022-12-11T08:36:05;3.60;99.90
21039;DHT22;10678;51.002;4.786;2022-12-11T08:38:31;3.70;99.90
21039;DHT22;10678;51.002;4.786;2022-12-11T08:40:57;3.60;99.90
21039;DHT22;10678;51.002;4.786;2022-12-11T08:43:23;3.70;99.90
21039;DHT22;10678;51.002;4.786;2022-12-11T08:45:49;3.80;99.90
21039;DHT22;10678;51.002;4.786;2022-12-11T08:48:15;3.90;99.90
21039;DHT22;10678;51.002;4.786;2022-12-11T08:50:41;3.90;99.90
21039;DHT22;10678;51.002;4.786;2022-12-11T08:53:07;3.80;99.90
21039;DHT22;10678;51.002;4.786;2022-12-11T08:55:33;3.90;99.90
21039;DHT22;10678;51.002;4.786;2022-12-11T08:57:59;4.00;99.90
21039;DHT22;10678;51.002;4.786;2022-12-11T09:00:24;3.90;99.90
21039;DHT22;10678;51.002;4.786;2022-12-11T09:02:50;3.90;99.90
21039;DHT22;10678;51.002;4.786;2022-12-11T09:05:16;4.00;99.90
21039;DHT22;10678;51.002;4.786;2022-12-11T09:07:42;3.80;99.90
21039;DHT22;10678;51.002;4.786;2022-12-11T09:10:08;4.00;99.90
21039;DHT22;10678;51.002;4.786;2022-12-11T09:12:35;4.10;99.90
21039;DHT22;10678;51.002;4.786;2022-12-11T09:15:01;4.10;99.90
21039;DHT22;10678;51.002;4.786;2022-12-11T09:17:27;4.20;99.90
21039;DHT22;10678;51.002;4.786;2022-12-11T09:19:52;4.20;99.90
21039;DHT22;10678;51.002;4.786;2022-12-11T09:22:18;4.10;99.90
21039;DHT22;10678;51.002;4.786;2022-12-11T09:24:44;4.20;99.90
21039;DHT22;10678;51.002;4.786;2022-12-11T09:27:10;4.10;99.90
21039;DHT22;10678;51.002;4.786;2022-12-11T09:29:37;4.10;99.90
21039;DHT22;10678;51.002;4.786;2022-12-11T09:32:03;4.10;99.90
21039;DHT22;10678;51.002;4.786;2022-12-11T09:34:28;4.20;99.90
21039;DHT22;10678;51.002;4.786;2022-12-11T09:36:54;4.20;99.90
21039;DHT22;10678;51.002;4.786;2022-12-11T09:39:19;4.30;99.90
21039;DHT22;10678;51.002;4.786;2022-12-11T09:46:57;4.70;99.90
21039;DHT22;10678;51.002;4.786;2022-12-11T09:49:39;4.50;99.90
21039;DHT22;10678;51.002;4.786;2022-12-11T09:52:22;4.30;99.90
21039;DHT22;10678;51.002;4.786;2022-12-11T09:54:56;4.20;99.90
21039;DHT22;10678;51.002;4.786;2022-12-11T10:00:31;4.30;99.90
21039;DHT22;10678;51.002;4.786;2022-12-11T10:03:08;4.50;99.90
21039;DHT22;10678;51.002;4.786;2022-12-11T10:10:50;4.50;99.90
21039;DHT22;10678;51.002;4.786;2022-12-11T10:13:49;4.70;99.90
21039;DHT22;10678;51.002;4.786;2022-12-11T10:16:32;4.50;99.90
21039;DHT22;10678;51.002;4.786;2022-12-11T10:19:00;4.40;99.90
21039;DHT22;10678;51.002;4.786;2022-12-11T10:21:26;4.40;99.90
21039;DHT22;10678;51.002;4.786;2022-12-11T10:23:59;4.40;99.90
21039;DHT22;10678;51.002;4.786;2022-12-11T10:26:27;4.40;99.90
21039;DHT22;10678;51.002;4.786;2022-12-11T10:28:57;4.30;99.90
21039;DHT22;10678;51.002;4.786;2022-12-11T10:31:31;4.40;99.90
21039;DHT22;10678;51.002;4.786;2022-12-11T10:34:11;4.40;99.90
21039;DHT22;10678;51.002;4.786;2022-12-11T10:36:39;4.60;99.90
21039;DHT22;10678;51.002;4.786;2022-12-11T10:39:31;4.60;99.90
21039;DHT22;10678;51.002;4.786;2022-12-11T10:41:57;4.60;99.90
21039;DHT22;10678;51.002;4.786;2022-12-11T10:44:26;4.70;99.90
21039;DHT22;10678;51.002;4.786;2022-12-11T10:47:11;4.80;99.90
21039;DHT22;10678;51.002;4.786;2022-12-11T10:49:42;4.70;99.90
21039;DHT22;10678;51.002;4.786;2022-12-11T10:52:19;4.60;99.90
21039;DHT22;10678;51.002;4.786;2022-12-11T10:54:45;4.60;99.90
21039;DHT22;10678;51.002;4.786;2022-12-11T10:57:13;4.50;99.90
21039;DHT22;10678;51.002;4.786;2022-12-11T10:59:53;4.70;99.90
21039;DHT22;10678;51.002;4.786;2022-12-11T11:02:26;4.70;99.90
21039;DHT22;10678;51.002;4.786;2022-12-11T11:04:53;4.90;99.90
21039;DHT22;10678;51.002;4.786;2022-12-11T11:07:25;4.90;99.90
21039;DHT22;10678;51.002;4.786;2022-12-11T11:10:24;5.00;99.90
21039;DHT22;10678;51.002;4.786;2022-12-11T11:12:54;5.10;99.90
21039;DHT22;10678;51.002;4.786;2022-12-11T11:15:27;5.10;99.90
21039;DHT22;10678;51.002;4.786;2022-12-11T11:18:16;5.00;99.90
21039;DHT22;10678;51.002;4.786;2022-12-11T11:20:47;4.80;99.90
21039;DHT22;10678;51.002;4.786;2022-12-11T11:23:14;4.80;99.90
21039;DHT22;10678;51.002;4.786;2022-12-11T11:25:55;4.90;99.90
21039;DHT22;10678;51.002;4.786;2022-12-11T11:28:27;5.10;99.90
21039;DHT22;10678;51.002;4.786;2022-12-11T11:33:28;5.10;99.90
21039;DHT22;10678;51.002;4.786;2022-12-11T11:36:05;5.00;99.90
21039;DHT22;10678;51.002;4.786;2022-12-11T11:38:45;4.90;99.90
21039;DHT22;10678;51.002;4.786;2022-12-11T11:41:20;5.00;99.90
21039;DHT22;10678;51.002;4.786;2022-12-11T11:44:05;4.80;99.90
21039;DHT22;10678;51.002;4.786;2022-12-11T11:51:37;4.50;99.90
21039;DHT22;10678;51.002;4.786;2022-12-11T11:54:35;4.60;99.90
21039;DHT22;10678;51.002;4.786;2022-12-11T11:57:13;4.70;99.90
21039;DHT22;10678;51.002;4.786;2022-12-11T12:02:46;4.70;99.90
21039;DHT22;10678;51.002;4.786;2022-12-11T12:05:14;4.80;99.90
21039;DHT22;10678;51.002;4.786;2022-12-11T12:10:52;5.40;99.90
21039;DHT22;10678;51.002;4.786;2022-12-11T12:13:35;5.60;99.90
21039;DHT22;10678;51.002;4.786;2022-12-11T12:16:13;5.80;99.90
21039;DHT22;10678;51.002;4.786;2022-12-11T12:18:57;6.00;99.90
21039;DHT22;10678;51.002;4.786;2022-12-11T12:21:36;6.20;99.90
21039;DHT22;10678;51.002;4.786;2022-12-11T12:33:10;5.70;99.90
21039;DHT22;10678;51.002;4.786;2022-12-11T12:41:13;5.30;99.90
21039;DHT22;10678;51.002;4.786;2022-12-11T12:44:11;5.60;99.90
21039;DHT22;10678;51.002;4.786;2022-12-11T12:47:08;5.60;99.90
21039;DHT22;10678;51.002;4.786;2022-12-11T12:49:46;5.50;99.90
21039;DHT22;10678;51.002;4.786;2022-12-11T12:52:19;5.70;99.90
21039;DHT22;10678;51.002;4.786;2022-12-11T12:54:49;5.50;99.90
21039;DHT22;10678;51.002;4.786;2022-12-11T12:57:37;5.40;99.90
21039;DHT22;10678;51.002;4.786;2022-12-11T13:00:06;5.00;99.90
21039;DHT22;10678;51.002;4.786;2022-12-11T13:02:49;5.00;99.90
21039;DHT22;10678;51.002;4.786;2022-12-11T13:05:26;4.80;99.90
21039;DHT22;10678;51.002;4.786;2022-12-11T13:07:56;4.80;99.90
21039;DHT22;10678;51.002;4.786;2022-12-11T13:10:36;4.60;99.90
21039;DHT22;10678;51.002;4.786;2022-12-11T13:13:04;4.60;99.90
21039;DHT22;10678;51.002;4.786;2022-12-11T13:15:40;4.70;99.90
21039;DHT22;10678;51.002;4.786;2022-12-11T13:18:35;4.90;99.90
21039;DHT22;10678;51.002;4.786;2022-12-11T13:21:24;4.90;99.90
21039;DHT22;10678;51.002;4.786;2022-12-11T13:23:50;5.10;99.90
21039;DHT22;10678;51.002;4.786;2022-12-11T13:26:30;5.10;99.90
21039;DHT22;10678;51.002;4.786;2022-12-11T13:28:57;5.00;99.90
21039;DHT22;10678;51.002;4.786;2022-12-11T13:33:56;5.20;99.90
21039;DHT22;10678;51.002;4.786;2022-12-11T13:36:32;5.00;99.90
21039;DHT22;10678;51.002;4.786;2022-12-11T13:39:14;4.80;99.90
21039;DHT22;10678;51.002;4.786;2022-12-11T13:41:45;4.60;99.90
21039;DHT22;10678;51.002;4.786;2022-12-11T13:44:25;4.40;99.90
21039;DHT22;10678;51.002;4.786;2022-12-11T13:46:54;4.50;99.90
21039;DHT22;10678;51.002;4.786;2022-12-11T13:49:23;4.50;99.90
21039;DHT22;10678;51.002;4.786;2022-12-11T13:51:54;4.60;99.90
21039;DHT22;10678;51.002;4.786;2022-12-11T13:54:20;4.80;99.90
21039;DHT22;10678;51.002;4.786;2022-12-11T13:59:32;4.90;99.90
21039;DHT22;10678;51.002;4.786;2022-12-11T14:02:23;5.00;99.90
21039;DHT22;10678;51.002;4.786;2022-12-11T14:04:56;5.00;99.90
21039;DHT22;10678;51.002;4.786;2022-12-11T14:07:28;4.90;99.90
21039;DHT22;10678;51.002;4.786;2022-12-11T14:12:55;4.70;99.90
21039;DHT22;10678;51.002;4.786;2022-12-11T14:15:21;4.70;99.90
21039;DHT22;10678;51.002;4.786;2022-12-11T14:17:48;4.80;99.90
21039;DHT22;10678;51.002;4.786;2022-12-11T14:20:22;4.70;99.90
21039;DHT22;10678;51.002;4.786;2022-12-11T14:22:48;4.80;99.90
21039;DHT22;10678;51.002;4.786;2022-12-11T14:25:23;4.60;99.90
21039;DHT22;10678;51.002;4.786;2022-12-11T14:27:51;4.50;99.90
21039;DHT22;10678;51.002;4.786;2022-12-11T14:30:26;4.40;99.90
21039;DHT22;10678;51.002;4.786;2022-12-11T14:32:58;4.40;99.90
21039;DHT22;10678;51.002;4.786;2022-12-11T14:35:34;4.30;99.90
21039;DHT22;10678;51.002;4.786;2022-12-11T14:38:19;4.30;99.90
21039;DHT22;10678;51.002;4.786;2022-12-11T14:40:50;4.30;99.90
21039;DHT22;10678;51.002;4.786;2022-12-11T14:43:31;4.30;99.90
21039;DHT22;10678;51.002;4.786;2022-12-11T14:46:01;4.30;99.90
21039;DHT22;10678;51.002;4.786;2022-12-11T14:48:38;4.40;99.90
21039;DHT22;10678;51.002;4.786;2022-12-11T14:51:10;4.40;99.90
21039;DHT22;10678;51.002;4.786;2022-12-11T14:53:42;4.30;99.90
21039;DHT22;10678;51.002;4.786;2022-12-11T14:56:18;4.40;99.90
21039;DHT22;10678;51.002;4.786;2022-12-11T14:59:04;4.30;99.90
21039;DHT22;10678;51.002;4.786;2022-12-11T15:01:32;4.30;99.90
21039;DHT22;10678;51.002;4.786;2022-12-11T15:06:44;4.30;99.90
21039;DHT22;10678;51.002;4.786;2022-12-11T15:12:23;4.20;99.90
21039;DHT22;10678;51.002;4.786;2022-12-11T15:14:58;4.20;99.90
21039;DHT22;10678;51.002;4.786;2022-12-11T15:17:25;4.20;99.90
21039;DHT22;10678;51.002;4.786;2022-12-11T15:19:54;4.10;99.90
21039;DHT22;10678;51.002;4.786;2022-12-11T15:22:22;4.10;99.90
21039;DHT22;10678;51.002;4.786;2022-12-11T15:24:51;4.10;99.90
21039;DHT22;10678;51.002;4.786;2022-12-11T15:27:32;4.00;99.90
21039;DHT22;10678;51.002;4.786;2022-12-11T15:30:00;4.10;99.90
21039;DHT22;10678;51.002;4.786;2022-12-11T15:32:25;4.00;99.90
21039;DHT22;10678;51.002;4.786;2022-12-11T15:34:55;4.10;99.90
21039;DHT22;10678;51.002;4.786;2022-12-11T15:37:29;3.90;99.90
21039;DHT22;10678;51.002;4.786;2022-12-11T15:39:57;3.90;99.90
21039;DHT22;10678;51.002;4.786;2022-12-11T15:42:36;3.90;99.90
21039;DHT22;10678;51.002;4.786;2022-12-11T15:45:05;3.90;99.90
21039;DHT22;10678;51.002;4.786;2022-12-11T15:47:31;4.00;99.90
21039;DHT22;10678;51.002;4.786;2022-12-11T15:50:00;4.00;99.90
21039;DHT22;10678;51.002;4.786;2022-12-11T15:52:26;4.00;99.90
21039;DHT22;10678;51.002;4.786;2022-12-11T15:54:52;4.00;99.90
21039;DHT22;10678;51.002;4.786;2022-12-11T15:57:20;4.00;99.90
21039;DHT22;10678;51.002;4.786;2022-12-11T15:59:49;4.00;99.90
21039;DHT22;10678;51.002;4.786;2022-12-11T16:02:15;4.00;99.90
21039;DHT22;10678;51.002;4.786;2022-12-11T16:04:41;4.00;99.90
21039;DHT22;10678;51.002;4.786;2022-12-11T16:07:21;4.00;99.90
21039;DHT22;10678;51.002;4.786;2022-12-11T16:09:47;3.90;99.90
21039;DHT22;10678;51.002;4.786;2022-12-11T16:12:13;3.90;99.90
21039;DHT22;10678;51.002;4.786;2022-12-11T16:14:43;3.90;99.90
21039;DHT22;10678;51.002;4.786;2022-12-11T16:17:10;3.90;99.90
21039;DHT22;10678;51.002;4.786;2022-12-11T16:19:37;3.90;99.90
21039;DHT22;10678;51.002;4.786;2022-12-11T16:22:04;3.90;99.90
21039;DHT22;10678;51.002;4.786;2022-12-11T16:24:31;3.70;99.90
21039;DHT22;10678;51.002;4.786;2022-12-11T16:26:57;3.80;99.90
21039;DHT22;10678;51.002;4.786;2022-12-11T16:29:23;3.80;99.90
21039;DHT22;10678;51.002;4.786;2022-12-11T16:31:49;3.70;99.90
21039;DHT22;10678;51.002;4.786;2022-12-11T16:34:14;3.60;99.90
21039;DHT22;10678;51.002;4.786;2022-12-11T16:36:40;3.60;99.90
21039;DHT22;10678;51.002;4.786;2022-12-11T16:39:05;3.60;99.90
21039;DHT22;10678;51.002;4.786;2022-12-11T16:41:31;3.60;99.90
21039;DHT22;10678;51.002;4.786;2022-12-11T16:44:00;3.60;99.90
21039;DHT22;10678;51.002;4.786;2022-12-11T16:46:26;3.60;99.90
21039;DHT22;10678;51.002;4.786;2022-12-11T16:48:51;3.60;99.90
21039;DHT22;10678;51.002;4.786;2022-12-11T16:51:17;3.50;99.90
21039;DHT22;10678;51.002;4.786;2022-12-11T16:53:43;3.60;99.90
21039;DHT22;10678;51.002;4.786;2022-12-11T16:56:09;3.50;99.90
21039;DHT22;10678;51.002;4.786;2022-12-11T16:58:35;3.50;99.90
21039;DHT22;10678;51.002;4.786;2022-12-11T17:01:06;3.40;99.90
21039;DHT22;10678;51.002;4.786;2022-12-11T17:03:36;3.40;99.90
21039;DHT22;10678;51.002;4.786;2022-12-11T17:06:05;3.40;99.90
21039;DHT22;10678;51.002;4.786;2022-12-11T17:08:31;3.30;99.90
21039;DHT22;10678;51.002;4.786;2022-12-11T17:10:57;3.30;99.90
21039;DHT22;10678;51.002;4.786;2022-12-11T17:13:22;3.30;99.90
21039;DHT22;10678;51.002;4.786;2022-12-11T17:15:48;3.30;99.90
21039;DHT22;10678;51.002;4.786;2022-12-11T17:18:13;3.30;99.90
21039;DHT22;10678;51.002;4.786;2022-12-11T17:20:41;3.20;99.90